createdAt,value
2023-01-01T00:00:10.355Z,983.03
2023-01-01T00:00:42.713Z,983.03
2023-01-01T00:01:13.892Z,983.13
2023-01-01T00:01:46.438Z,983.13
2023-01-01T00:02:17.731Z,983.13
2023-01-01T00:02:50.471Z,983.13
2023-01-01T00:03:21.820Z,983.03
2023-01-01T00:03:54.577Z,983.03
2023-01-01T00:04:25.704Z,983.13
2023-01-01T00:04:58.640Z,983.13
2023-01-01T00:05:30.103Z,983.03
2023-01-01T00:06:02.634Z,983.24
2023-01-01T00:06:33.597Z,983.24
2023-01-01T00:07:06.692Z,983.34
2023-01-01T00:07:37.721Z,983.34
2023-01-01T00:08:10.618Z,982.93
2023-01-01T00:08:41.739Z,982.93
2023-01-01T00:09:14.799Z,982.93
2023-01-01T00:09:45.622Z,982.93
2023-01-01T00:10:18.860Z,983.03
2023-01-01T00:10:49.695Z,983.03
2023-01-01T00:11:22.485Z,983.03
2023-01-01T00:11:53.726Z,983.03
2023-01-01T00:12:26.626Z,983.13
2023-01-01T00:12:57.687Z,983.13
2023-01-01T00:13:30.446Z,982.93
2023-01-01T00:14:04.324Z,983.13
2023-01-01T00:14:34.783Z,983.13
2023-01-01T00:15:06.873Z,983.24
2023-01-01T00:15:38.651Z,983.24
2023-01-01T00:16:09.713Z,983.24
2023-01-01T00:16:42.556Z,983.24
2023-01-01T00:17:13.582Z,983.24
2023-01-01T00:17:46.712Z,983.24
2023-01-01T00:18:17.771Z,983.34
2023-01-01T00:18:50.756Z,983.34
2023-01-01T00:19:21.631Z,983.24
2023-01-01T00:19:54.538Z,983.24
2023-01-01T00:20:31.454Z,983.24
2023-01-01T00:20:58.411Z,983.24
2023-01-01T00:21:29.745Z,983.24
2023-01-01T00:22:27.872Z,983.13
2023-01-01T00:23:06.568Z,983.24
2023-01-01T00:23:37.754Z,983.24
2023-01-01T00:24:10.485Z,983.24
2023-01-01T00:24:41.651Z,983.24
2023-01-01T00:25:14.835Z,983.13
2023-01-01T00:25:45.619Z,983.13
2023-01-01T00:26:18.664Z,983.24
2023-01-01T00:26:49.698Z,983.24
2023-01-01T00:27:22.755Z,983.24
2023-01-01T00:27:53.551Z,983.24
2023-01-01T00:28:26.551Z,983.44
2023-01-01T00:28:57.825Z,983.44
2023-01-01T00:29:30.686Z,983.44
2023-01-01T00:30:03.117Z,983.03
2023-01-01T00:30:34.730Z,983.03
2023-01-01T00:31:05.827Z,983.24
2023-01-01T00:31:38.635Z,983.24
2023-01-01T00:32:11.629Z,983.24
2023-01-01T00:32:42.603Z,983.24
2023-01-01T00:33:13.569Z,983.24
2023-01-01T00:33:46.519Z,983.24
2023-01-01T00:34:17.686Z,983.24
2023-01-01T00:34:50.497Z,983.24
2023-01-01T00:35:21.975Z,983.34
2023-01-01T00:35:54.621Z,983.34
2023-01-01T00:36:25.841Z,983.24
2023-01-01T00:36:58.496Z,983.24
2023-01-01T00:37:29.670Z,983.44
2023-01-01T00:38:02.605Z,983.13
2023-01-01T00:38:33.545Z,983.13
2023-01-01T00:39:06.608Z,983.03
2023-01-01T00:39:37.688Z,983.03
2023-01-01T00:40:10.710Z,983.03
2023-01-01T00:40:41.555Z,983.03
2023-01-01T00:41:14.495Z,983.13
2023-01-01T00:41:45.776Z,983.13
2023-01-01T00:42:18.576Z,983.03
2023-01-01T00:42:49.701Z,983.03
2023-01-01T00:43:22.574Z,983.24
2023-01-01T00:43:53.812Z,983.24
2023-01-01T00:44:26.276Z,983.24
2023-01-01T00:44:57.735Z,983.24
2023-01-01T00:45:32.037Z,983.03
2023-01-01T00:46:01.685Z,983.13
2023-01-01T00:46:34.773Z,983.13
2023-01-01T00:47:05.757Z,983.13
2023-01-01T00:47:38.487Z,983.13
2023-01-01T00:48:09.674Z,983.24
2023-01-01T00:48:42.687Z,983.24
2023-01-01T00:49:13.748Z,983.34
2023-01-01T00:49:46.725Z,983.34
2023-01-01T00:50:17.938Z,983.03
2023-01-01T00:50:50.634Z,983.03
2023-01-01T00:51:21.793Z,983.51
2023-01-01T00:51:54.562Z,983.51
2023-01-01T00:52:25.588Z,983.24
2023-01-01T00:52:58.760Z,983.24
2023-01-01T00:53:29.577Z,983.24
2023-01-01T00:54:02.631Z,983.24
2023-01-01T00:54:33.644Z,983.24
2023-01-01T00:55:06.793Z,983.34
2023-01-01T00:55:37.707Z,983.34
2023-01-01T00:56:10.536Z,983.13
2023-01-01T00:56:41.752Z,983.13
2023-01-01T00:57:14.572Z,983.34
2023-01-01T00:57:45.689Z,983.34
2023-01-01T00:58:18.596Z,983.34
2023-01-01T00:59:01.467Z,983.34
2023-01-01T00:59:28.300Z,983.13
2023-01-01T00:59:53.681Z,983.13
2023-01-01T01:00:28.597Z,983.24
2023-01-01T01:00:57.901Z,983.24
2023-01-01T01:01:30.763Z,983.44
2023-01-01T01:02:02.111Z,983.24
2023-01-01T01:02:35.103Z,983.24
2023-01-01T01:03:05.775Z,983.34
2023-01-01T01:03:38.572Z,983.34
2023-01-01T01:04:09.838Z,983.34
2023-01-01T01:04:42.441Z,983.34
2023-01-01T01:05:14.150Z,983.34
2023-01-01T01:05:46.395Z,983.34
2023-01-01T01:06:17.594Z,983.03
2023-01-01T01:06:50.740Z,983.03
2023-01-01T01:07:21.848Z,983.03
2023-01-01T01:07:54.956Z,983.03
2023-01-01T01:08:30.461Z,983.24
2023-01-01T01:08:58.492Z,983.24
2023-01-01T01:09:29.846Z,983.13
2023-01-01T01:10:02.887Z,983.13
2023-01-01T01:10:33.644Z,983.13
2023-01-01T01:11:06.605Z,983.13
2023-01-01T01:11:37.773Z,983.13
2023-01-01T01:12:18.216Z,983.13
2023-01-01T01:12:41.687Z,983.13
2023-01-01T01:13:14.644Z,983.24
2023-01-01T01:13:45.543Z,983.24
2023-01-01T01:14:18.624Z,983.13
2023-01-01T01:14:49.777Z,983.13
2023-01-01T01:15:23.782Z,983.34
2023-01-01T01:15:56.370Z,983.34
2023-01-01T01:16:26.670Z,983.03
2023-01-01T01:16:57.865Z,983.03
2023-01-01T01:17:30.495Z,983.03
2023-01-01T01:18:01.775Z,983.24
2023-01-01T01:18:34.740Z,983.24
2023-01-01T01:19:05.911Z,983.03
2023-01-01T01:19:38.562Z,983.03
2023-01-01T01:20:10.064Z,982.93
2023-01-01T01:20:42.628Z,982.93
2023-01-01T01:21:13.656Z,983.03
2023-01-01T01:21:46.606Z,983.03
2023-01-01T01:22:19.594Z,983.24
2023-01-01T01:22:50.860Z,983.24
2023-01-01T01:23:21.650Z,983.24
2023-01-01T01:23:54.439Z,983.24
2023-01-01T01:24:25.754Z,983.24
2023-01-01T01:24:58.427Z,983.24
2023-01-01T01:25:30.093Z,983.24
2023-01-01T01:26:02.525Z,983.24
2023-01-01T01:26:33.630Z,983.24
2023-01-01T01:27:06.651Z,983.03
2023-01-01T01:27:38.054Z,983.03
2023-01-01T01:28:10.391Z,983.03
2023-01-01T01:28:48.807Z,983.03
2023-01-01T01:28:57.868Z,983.03
2023-01-01T01:29:29.608Z,983.13
2023-01-01T01:30:03.184Z,983.03
2023-01-01T01:30:33.885Z,983.03
2023-01-01T01:31:05.810Z,983.03
2023-01-01T01:31:38.630Z,983.03
2023-01-01T01:32:09.736Z,983.03
2023-01-01T01:32:42.773Z,983.03
2023-01-01T01:33:13.629Z,983.03
2023-01-01T01:33:46.593Z,983.03
2023-01-01T01:34:21.221Z,983.03
2023-01-01T01:34:50.564Z,983.03
2023-01-01T01:35:21.984Z,983.03
2023-01-01T01:35:54.784Z,983.03
2023-01-01T01:36:25.546Z,983.13
2023-01-01T01:36:58.663Z,983.13
2023-01-01T01:37:29.733Z,983.13
2023-01-01T01:38:02.816Z,983.03
2023-01-01T01:38:33.641Z,983.03
2023-01-01T01:39:06.637Z,983.03
2023-01-01T01:39:37.718Z,983.03
2023-01-01T01:40:10.804Z,983.13
2023-01-01T01:40:41.651Z,983.13
2023-01-01T01:41:26.928Z,983.24
2023-01-01T01:41:45.720Z,983.24
2023-01-01T01:42:18.457Z,982.93
2023-01-01T01:42:49.683Z,982.93
2023-01-01T01:43:22.631Z,983.34
2023-01-01T01:43:53.609Z,983.34
2023-01-01T01:44:26.469Z,983.13
2023-01-01T01:44:57.731Z,983.13
2023-01-01T01:45:33.565Z,983.13
2023-01-01T01:46:01.590Z,983.44
2023-01-01T01:46:34.840Z,983.44
2023-01-01T01:47:05.785Z,983.03
2023-01-01T01:47:38.434Z,983.03
2023-01-01T01:48:09.733Z,983.13
2023-01-01T01:48:42.502Z,983.13
2023-01-01T01:49:13.773Z,983.13
2023-01-01T01:49:46.482Z,983.13
2023-01-01T01:50:18.029Z,983.24
2023-01-01T01:50:50.681Z,983.24
2023-01-01T01:51:21.689Z,983.24
2023-01-01T01:51:54.484Z,983.24
2023-01-01T01:52:25.679Z,983.24
2023-01-01T01:52:58.927Z,983.24
2023-01-01T01:53:29.761Z,983.24
2023-01-01T01:54:02.524Z,983.13
2023-01-01T01:54:33.651Z,983.13
2023-01-01T01:55:06.570Z,983.03
2023-01-01T01:55:37.650Z,983.03
2023-01-01T01:56:10.624Z,983.13
2023-01-01T01:56:41.736Z,983.13
2023-01-01T01:57:14.512Z,983.34
2023-01-01T01:57:45.749Z,983.34
2023-01-01T01:58:18.586Z,983.34
2023-01-01T01:58:49.691Z,983.34
2023-01-01T01:59:22.575Z,983.24
2023-01-01T01:59:53.774Z,983.24
2023-01-01T02:00:27.706Z,983.03
2023-01-01T02:00:57.783Z,983.03
2023-01-01T02:01:30.640Z,983.24
2023-01-01T02:02:01.970Z,983.13
2023-01-01T02:02:34.902Z,983.13
2023-01-01T02:03:05.800Z,983.13
2023-01-01T02:03:38.482Z,983.13
2023-01-01T02:04:09.753Z,983.24
2023-01-01T02:04:42.517Z,983.24
2023-01-01T02:05:14.035Z,983.24
2023-01-01T02:05:46.897Z,983.24
2023-01-01T02:06:17.560Z,983.24
2023-01-01T02:06:50.642Z,983.24
2023-01-01T02:07:21.788Z,983.03
2023-01-01T02:07:54.705Z,983.03
2023-01-01T02:08:25.725Z,983.24
2023-01-01T02:08:58.382Z,983.24
2023-01-01T02:09:29.784Z,983.03
2023-01-01T02:10:03.041Z,983.24
2023-01-01T02:10:33.670Z,983.24
2023-01-01T02:11:06.786Z,983.03
2023-01-01T02:11:37.604Z,983.03
2023-01-01T02:12:10.579Z,982.83
2023-01-01T02:12:41.737Z,982.83
2023-01-01T02:13:14.740Z,983.03
2023-01-01T02:13:45.671Z,983.03
2023-01-01T02:14:18.628Z,983.13
2023-01-01T02:14:49.790Z,983.13
2023-01-01T02:15:23.861Z,983.03
2023-01-01T02:15:53.857Z,983.03
2023-01-01T02:16:26.460Z,983.24
2023-01-01T02:16:57.660Z,983.24
2023-01-01T02:17:34.041Z,983.13
2023-01-01T02:18:01.815Z,983.03
2023-01-01T02:18:34.395Z,983.03
2023-01-01T02:19:05.712Z,983.03
2023-01-01T02:19:38.551Z,983.03
2023-01-01T02:20:10.001Z,983.03
2023-01-01T02:20:42.579Z,983.03
2023-01-01T02:21:13.695Z,982.83
2023-01-01T02:21:46.618Z,982.83
2023-01-01T02:22:17.781Z,983.03
2023-01-01T02:22:50.801Z,983.03
2023-01-01T02:23:21.798Z,983.24
2023-01-01T02:23:54.656Z,983.24
2023-01-01T02:24:25.596Z,983.13
2023-01-01T02:24:58.435Z,983.13
2023-01-01T02:25:30.241Z,983.24
2023-01-01T02:26:02.523Z,983.24
2023-01-01T02:26:33.630Z,983.24
2023-01-01T02:27:06.639Z,982.83
2023-01-01T02:27:38.058Z,982.83
2023-01-01T02:28:10.439Z,983.03
2023-01-01T02:28:41.736Z,983.03
2023-01-01T02:29:14.552Z,983.03
2023-01-01T02:29:45.665Z,983.03
2023-01-01T02:30:19.633Z,982.93
2023-01-01T02:30:50.047Z,982.93
2023-01-01T02:31:23.597Z,983.03
2023-01-01T02:31:53.714Z,983.03
2023-01-01T02:32:26.601Z,983.03
2023-01-01T02:32:57.817Z,983.03
2023-01-01T02:33:30.626Z,983.03
2023-01-01T02:34:01.776Z,983.03
2023-01-01T02:34:34.597Z,983.03
2023-01-01T02:35:05.839Z,983.03
2023-01-01T02:35:38.548Z,983.03
2023-01-01T02:36:09.850Z,982.93
2023-01-01T02:36:42.738Z,982.93
2023-01-01T02:37:13.620Z,983.03
2023-01-01T02:37:46.632Z,983.03
2023-01-01T02:38:17.843Z,982.83
2023-01-01T02:38:50.565Z,982.83
2023-01-01T02:39:21.753Z,983.03
2023-01-01T02:39:54.635Z,983.03
2023-01-01T02:40:26.290Z,982.93
2023-01-01T02:40:58.533Z,982.93
2023-01-01T02:41:29.799Z,982.93
2023-01-01T02:42:02.570Z,982.83
2023-01-01T02:42:33.659Z,982.83
2023-01-01T02:43:06.642Z,982.83
2023-01-01T02:43:37.664Z,982.83
2023-01-01T02:44:10.764Z,983.03
2023-01-01T02:44:41.647Z,983.03
2023-01-01T02:45:15.645Z,983.03
2023-01-01T02:45:45.934Z,983.03
2023-01-01T02:46:49.663Z,983.13
2023-01-01T02:47:22.670Z,982.83
2023-01-01T02:47:53.942Z,982.83
2023-01-01T02:48:26.591Z,983.24
2023-01-01T02:48:57.791Z,983.24
2023-01-01T02:49:30.567Z,983.03
2023-01-01T02:50:02.136Z,982.83
2023-01-01T02:50:34.697Z,982.83
2023-01-01T02:51:05.913Z,983.13
2023-01-01T02:51:38.542Z,983.13
2023-01-01T02:52:09.769Z,983.03
2023-01-01T02:52:42.738Z,983.03
2023-01-01T02:53:13.884Z,983.13
2023-01-01T02:53:46.501Z,983.13
2023-01-01T02:54:17.784Z,982.93
2023-01-01T02:54:50.712Z,982.93
2023-01-01T02:55:22.063Z,982.63
2023-01-01T02:55:54.610Z,982.63
2023-01-01T02:56:25.763Z,983.13
2023-01-01T02:56:58.752Z,983.13
2023-01-01T02:57:29.822Z,983.03
2023-01-01T02:58:02.817Z,983.03
2023-01-01T02:58:33.744Z,983.03
2023-01-01T02:59:06.641Z,983.03
2023-01-01T02:59:37.633Z,983.03
2023-01-01T03:00:11.714Z,982.63
2023-01-01T03:00:41.536Z,982.63
2023-01-01T03:00:58.454Z,982.63
2023-01-01T03:01:29.932Z,983.03
2023-01-01T03:02:01.868Z,982.93
2023-01-01T03:02:35.956Z,982.93
2023-01-01T03:03:05.978Z,982.93
2023-01-01T03:03:38.802Z,982.93
2023-01-01T03:04:09.684Z,983.03
2023-01-01T03:04:42.639Z,983.03
2023-01-01T03:05:14.142Z,983.03
2023-01-01T03:05:46.688Z,983.03
2023-01-01T03:06:17.736Z,983.03
2023-01-01T03:06:50.576Z,983.03
2023-01-01T03:07:21.743Z,982.93
2023-01-01T03:07:54.683Z,982.93
2023-01-01T03:08:25.803Z,983.03
2023-01-01T03:08:58.848Z,983.03
2023-01-01T03:09:29.775Z,983.03
2023-01-01T03:10:03.083Z,982.83
2023-01-01T03:10:33.857Z,982.83
2023-01-01T03:11:06.872Z,983.03
2023-01-01T03:11:37.764Z,983.03
2023-01-01T03:12:10.758Z,983.03
2023-01-01T03:12:41.873Z,983.03
2023-01-01T03:13:14.661Z,982.93
2023-01-01T03:13:45.834Z,982.93
2023-01-01T03:14:18.592Z,983.13
2023-01-01T03:14:49.744Z,983.13
2023-01-01T03:15:23.835Z,982.83
2023-01-01T03:15:53.862Z,982.83
2023-01-01T03:16:26.600Z,983.03
2023-01-01T03:16:57.744Z,983.03
2023-01-01T03:17:30.840Z,983.03
2023-01-01T03:18:01.638Z,982.93
2023-01-01T03:18:34.410Z,982.93
2023-01-01T03:19:05.836Z,982.93
2023-01-01T03:19:38.583Z,982.93
2023-01-01T03:20:09.913Z,983.03
2023-01-01T03:20:42.464Z,983.03
2023-01-01T03:21:46.669Z,982.93
2023-01-01T03:22:17.621Z,982.83
2023-01-01T03:22:50.714Z,982.83
2023-01-01T03:23:21.865Z,983.13
2023-01-01T03:23:54.765Z,983.13
2023-01-01T03:24:25.731Z,982.83
2023-01-01T03:24:58.728Z,982.83
2023-01-01T03:25:30.287Z,983.13
2023-01-01T03:26:02.597Z,983.03
2023-01-01T03:26:33.849Z,983.03
2023-01-01T03:27:06.615Z,983.24
2023-01-01T03:27:38.085Z,983.24
2023-01-01T03:28:10.521Z,983.24
2023-01-01T03:28:41.800Z,983.24
2023-01-01T03:29:14.729Z,983.13
2023-01-01T03:29:45.675Z,983.13
2023-01-01T03:30:19.821Z,983.13
2023-01-01T03:30:50.067Z,983.13
2023-01-01T03:31:22.878Z,983.03
2023-01-01T03:31:53.716Z,983.03
2023-01-01T03:32:26.655Z,983.13
2023-01-01T03:32:57.921Z,983.13
2023-01-01T03:33:30.467Z,983.13
2023-01-01T03:34:01.793Z,983.03
2023-01-01T03:34:34.804Z,983.03
2023-01-01T03:35:05.853Z,983.13
2023-01-01T03:35:38.585Z,983.13
2023-01-01T03:36:09.780Z,983.13
2023-01-01T03:36:42.669Z,983.13
2023-01-01T03:37:13.853Z,983.24
2023-01-01T03:37:46.770Z,983.24
2023-01-01T03:38:17.797Z,983.13
2023-01-01T03:38:50.999Z,983.13
2023-01-01T03:39:21.732Z,983.03
2023-01-01T03:39:54.403Z,983.03
2023-01-01T03:40:26.198Z,983.13
2023-01-01T03:40:58.690Z,983.13
2023-01-01T03:41:29.663Z,983.03
2023-01-01T03:42:02.787Z,983.03
2023-01-01T03:42:33.739Z,983.03
2023-01-01T03:43:06.643Z,982.93
2023-01-01T03:43:37.684Z,982.93
2023-01-01T03:44:10.828Z,983.24
2023-01-01T03:44:41.643Z,983.24
2023-01-01T03:45:15.631Z,983.03
2023-01-01T03:45:45.922Z,983.03
2023-01-01T03:46:18.425Z,983.34
2023-01-01T03:46:49.802Z,983.34
2023-01-01T03:47:22.515Z,983.13
2023-01-01T03:47:53.930Z,983.13
2023-01-01T03:48:26.444Z,983.13
2023-01-01T03:49:03.021Z,983.13
2023-01-01T03:49:30.459Z,983.34
2023-01-01T03:50:02.277Z,983.13
2023-01-01T03:50:34.617Z,983.13
2023-01-01T03:51:05.822Z,983.13
2023-01-01T03:51:38.532Z,983.13
2023-01-01T03:52:09.720Z,983.13
2023-01-01T03:52:42.652Z,983.13
2023-01-01T03:53:13.797Z,983.13
2023-01-01T03:53:46.449Z,983.13
2023-01-01T03:54:17.649Z,982.93
2023-01-01T03:54:56.721Z,982.93
2023-01-01T03:55:22.294Z,983.13
2023-01-01T03:55:54.529Z,983.13
2023-01-01T03:56:25.792Z,983.03
2023-01-01T03:56:58.510Z,983.03
2023-01-01T03:57:29.726Z,982.93
2023-01-01T03:58:02.556Z,983.03
2023-01-01T03:58:33.677Z,983.03
2023-01-01T03:59:06.613Z,983.03
2023-01-01T03:59:37.697Z,983.03
2023-01-01T04:00:11.591Z,983.24
2023-01-01T04:00:41.945Z,983.24
2023-01-01T04:01:14.438Z,983.34
2023-01-01T04:01:45.912Z,983.34
2023-01-01T04:02:18.568Z,983.03
2023-01-01T04:02:49.977Z,983.03
2023-01-01T04:03:22.708Z,983.03
2023-01-01T04:03:53.862Z,983.03
2023-01-01T04:04:26.590Z,983.24
2023-01-01T04:04:57.975Z,983.24
2023-01-01T04:05:30.969Z,983.34
2023-01-01T04:06:01.880Z,983.34
2023-01-01T04:06:34.690Z,983.34
2023-01-01T04:07:14.811Z,983.44
2023-01-01T04:07:38.702Z,983.44
2023-01-01T04:08:09.849Z,983.34
2023-01-01T04:08:42.452Z,983.34
2023-01-01T04:09:13.714Z,983.24
2023-01-01T04:09:46.686Z,983.24
2023-01-01T04:10:18.279Z,983.24
2023-01-01T04:10:50.604Z,983.24
2023-01-01T04:11:21.959Z,983.24
2023-01-01T04:11:54.889Z,983.24
2023-01-01T04:12:25.749Z,983.24
2023-01-01T04:12:58.833Z,983.24
2023-01-01T04:13:29.868Z,983.44
2023-01-01T04:14:02.639Z,983.44
2023-01-01T04:14:33.719Z,983.44
2023-01-01T04:15:07.762Z,983.44
2023-01-01T04:15:38.011Z,983.44
2023-01-01T04:16:10.522Z,983.34
2023-01-01T04:16:41.725Z,983.34
2023-01-01T04:17:14.702Z,983.51
2023-01-01T04:17:45.804Z,983.51
2023-01-01T04:18:18.410Z,983.34
2023-01-01T04:18:49.825Z,983.34
2023-01-01T04:19:22.772Z,983.44
2023-01-01T04:19:55.417Z,983.44
2023-01-01T04:20:26.919Z,983.24
2023-01-01T04:20:57.969Z,983.24
2023-01-01T04:21:30.512Z,983.44
2023-01-01T04:22:01.824Z,983.51
2023-01-01T04:22:34.897Z,983.51
2023-01-01T04:23:06.013Z,983.34
2023-01-01T04:23:38.639Z,983.34
2023-01-01T04:24:09.575Z,983.34
2023-01-01T04:24:42.626Z,983.34
2023-01-01T04:25:13.962Z,983.51
2023-01-01T04:25:46.649Z,983.51
2023-01-01T04:26:17.830Z,983.34
2023-01-01T04:26:50.597Z,983.34
2023-01-01T04:27:21.808Z,983.34
2023-01-01T04:27:54.598Z,983.34
2023-01-01T04:28:25.821Z,983.51
2023-01-01T04:28:58.594Z,983.51
2023-01-01T04:29:29.767Z,983.51
2023-01-01T04:30:04.186Z,983.51
2023-01-01T04:31:06.437Z,983.44
2023-01-01T04:31:37.861Z,983.44
2023-01-01T04:32:10.548Z,983.34
2023-01-01T04:32:41.731Z,983.34
2023-01-01T04:33:14.517Z,983.51
2023-01-01T04:33:45.866Z,983.51
2023-01-01T04:34:18.497Z,983.51
2023-01-01T04:34:49.744Z,983.51
2023-01-01T04:35:22.859Z,983.44
2023-01-01T04:35:53.659Z,983.44
2023-01-01T04:36:26.759Z,983.61
2023-01-01T04:36:57.792Z,983.61
2023-01-01T04:37:30.643Z,983.51
2023-01-01T04:38:01.700Z,983.44
2023-01-01T04:38:34.635Z,983.44
2023-01-01T04:39:05.915Z,983.51
2023-01-01T04:39:38.340Z,983.51
2023-01-01T04:40:10.120Z,983.51
2023-01-01T04:40:42.476Z,983.51
2023-01-01T04:41:13.655Z,983.61
2023-01-01T04:41:46.553Z,983.61
2023-01-01T04:42:17.898Z,983.34
2023-01-01T04:42:50.739Z,983.34
2023-01-01T04:43:21.779Z,983.61
2023-01-01T04:43:54.547Z,983.61
2023-01-01T04:44:25.861Z,983.44
2023-01-01T04:44:58.420Z,983.44
2023-01-01T04:45:31.114Z,983.44
2023-01-01T04:46:02.735Z,983.44
2023-01-01T04:46:33.953Z,983.44
2023-01-01T04:47:06.486Z,983.34
2023-01-01T04:47:37.722Z,983.34
2023-01-01T04:48:10.745Z,983.51
2023-01-01T04:48:41.722Z,983.51
2023-01-01T04:48:57.820Z,983.51
2023-01-01T04:49:29.868Z,983.61
2023-01-01T04:50:02.188Z,983.61
2023-01-01T04:50:34.687Z,983.61
2023-01-01T04:51:05.922Z,983.34
2023-01-01T04:51:38.434Z,983.34
2023-01-01T04:52:09.797Z,983.34
2023-01-01T04:52:42.753Z,983.34
2023-01-01T04:53:13.725Z,983.81
2023-01-01T04:53:29.862Z,983.81
2023-01-01T04:54:02.020Z,983.61
2023-01-01T04:54:33.709Z,983.61
2023-01-01T04:55:06.710Z,983.71
2023-01-01T04:55:37.888Z,983.71
2023-01-01T04:56:10.477Z,983.61
2023-01-01T04:56:41.703Z,983.61
2023-01-01T04:57:14.706Z,983.91
2023-01-01T04:57:45.857Z,983.91
2023-01-01T04:58:18.702Z,983.61
2023-01-01T04:58:49.805Z,983.61
2023-01-01T04:59:22.564Z,983.71
2023-01-01T04:59:53.655Z,983.71
2023-01-01T05:00:27.612Z,983.71
2023-01-01T05:00:58.189Z,983.71
2023-01-01T05:01:30.847Z,983.71
2023-01-01T05:02:01.983Z,983.71
2023-01-01T05:02:34.871Z,983.71
2023-01-01T05:03:05.758Z,983.91
2023-01-01T05:03:38.415Z,983.91
2023-01-01T05:04:09.628Z,984.02
2023-01-01T05:04:42.695Z,984.02
2023-01-01T05:05:14.045Z,983.71
2023-01-01T05:05:51.162Z,983.71
2023-01-01T05:06:17.877Z,983.81
2023-01-01T05:06:50.785Z,983.81
2023-01-01T05:07:21.640Z,983.81
2023-01-01T05:07:54.776Z,983.81
2023-01-01T05:08:25.735Z,983.61
2023-01-01T05:08:58.599Z,983.61
2023-01-01T05:09:29.642Z,983.81
2023-01-01T05:10:02.998Z,983.71
2023-01-01T05:10:33.899Z,983.71
2023-01-01T05:11:06.424Z,983.71
2023-01-01T05:11:37.789Z,983.71
2023-01-01T05:12:10.864Z,984.02
2023-01-01T05:12:41.952Z,984.02
2023-01-01T05:13:14.489Z,983.71
2023-01-01T05:13:45.758Z,983.71
2023-01-01T05:14:18.822Z,983.91
2023-01-01T05:14:49.730Z,983.91
2023-01-01T05:15:23.635Z,984.02
2023-01-01T05:15:53.920Z,984.02
2023-01-01T05:16:26.693Z,983.81
2023-01-01T05:16:57.733Z,983.81
2023-01-01T05:17:30.871Z,983.91
2023-01-01T05:18:01.996Z,983.91
2023-01-01T05:18:34.463Z,983.91
2023-01-01T05:19:05.887Z,983.81
2023-01-01T05:19:38.613Z,983.81
2023-01-01T05:20:09.918Z,984.02
2023-01-01T05:20:42.388Z,984.02
2023-01-01T05:21:13.806Z,984.12
2023-01-01T05:21:46.730Z,984.12
2023-01-01T05:22:17.717Z,983.91
2023-01-01T05:22:50.926Z,983.91
2023-01-01T05:23:21.816Z,983.91
2023-01-01T05:23:54.826Z,983.91
2023-01-01T05:24:25.737Z,983.91
2023-01-01T05:24:58.912Z,983.91
2023-01-01T05:25:30.276Z,984.02
2023-01-01T05:26:02.566Z,984.12
2023-01-01T05:26:33.752Z,984.12
2023-01-01T05:27:06.864Z,984.02
2023-01-01T05:27:37.992Z,984.02
2023-01-01T05:28:10.497Z,983.91
2023-01-01T05:28:41.840Z,983.91
2023-01-01T05:29:17.071Z,984.12
2023-01-01T05:29:45.774Z,984.12
2023-01-01T05:30:19.635Z,984.12
2023-01-01T05:30:50.059Z,984.12
2023-01-01T05:31:22.829Z,984.02
2023-01-01T05:31:53.881Z,984.02
2023-01-01T05:32:26.715Z,983.91
2023-01-01T05:32:57.863Z,983.91
2023-01-01T05:33:30.698Z,983.91
2023-01-01T05:35:06.018Z,984.02
2023-01-01T05:35:38.885Z,984.02
2023-01-01T05:36:09.982Z,984.02
2023-01-01T05:36:42.854Z,984.02
2023-01-01T05:37:13.849Z,984.02
2023-01-01T05:37:30.120Z,984.02
2023-01-01T05:38:01.820Z,983.91
2023-01-01T05:38:33.852Z,983.91
2023-01-01T05:39:05.889Z,984.12
2023-01-01T05:39:37.734Z,984.12
2023-01-01T05:40:10.897Z,984.12
2023-01-01T05:40:41.830Z,984.12
2023-01-01T05:41:14.630Z,983.91
2023-01-01T05:41:45.736Z,983.91
2023-01-01T05:42:18.844Z,984.12
2023-01-01T05:42:49.877Z,984.12
2023-01-01T05:43:22.803Z,983.91
2023-01-01T05:43:53.753Z,983.91
2023-01-01T05:44:26.737Z,983.91
2023-01-01T05:44:57.932Z,983.91
2023-01-01T05:45:32.105Z,984.02
2023-01-01T05:46:01.863Z,983.91
2023-01-01T05:46:34.792Z,983.91
2023-01-01T05:47:05.717Z,983.81
2023-01-01T05:47:38.529Z,983.81
2023-01-01T05:48:09.883Z,983.91
2023-01-01T05:48:42.940Z,983.91
2023-01-01T05:49:13.895Z,983.91
2023-01-01T05:49:46.875Z,983.91
2023-01-01T05:50:18.253Z,984.02
2023-01-01T05:50:50.709Z,984.02
2023-01-01T05:51:21.834Z,984.12
2023-01-01T05:51:54.766Z,984.12
2023-01-01T05:52:27.004Z,984.12
2023-01-01T05:52:58.819Z,984.12
2023-01-01T05:53:29.884Z,984.12
2023-01-01T05:54:02.681Z,984.22
2023-01-01T05:54:33.715Z,984.22
2023-01-01T05:55:06.767Z,984.02
2023-01-01T05:55:37.867Z,984.02
2023-01-01T05:56:11.530Z,983.81
2023-01-01T05:56:41.846Z,983.81
2023-01-01T05:57:14.764Z,984.12
2023-01-01T05:57:45.805Z,984.12
2023-01-01T05:58:18.609Z,984.02
2023-01-01T05:58:49.865Z,984.02
2023-01-01T05:59:22.778Z,983.91
2023-01-01T05:59:53.725Z,983.91
2023-01-01T06:00:27.694Z,984.22
2023-01-01T06:00:57.998Z,984.22
2023-01-01T06:01:31.444Z,984.02
2023-01-01T06:02:01.907Z,984.02
2023-01-01T06:02:34.849Z,984.02
2023-01-01T06:03:05.916Z,984.02
2023-01-01T06:03:38.482Z,984.02
2023-01-01T06:04:09.937Z,984.12
2023-01-01T06:04:42.961Z,984.12
2023-01-01T06:05:14.090Z,984.02
2023-01-01T06:05:29.968Z,984.02
2023-01-01T06:06:01.794Z,984.12
2023-01-01T06:06:33.619Z,984.12
2023-01-01T06:07:05.898Z,984.12
2023-01-01T06:07:38.760Z,984.12
2023-01-01T06:08:09.873Z,984.12
2023-01-01T06:08:41.820Z,984.12
2023-01-01T06:09:13.817Z,984.12
2023-01-01T06:09:45.716Z,984.12
2023-01-01T06:10:18.895Z,984.22
2023-01-01T06:10:49.854Z,984.22
2023-01-01T06:11:22.943Z,984.22
2023-01-01T06:11:53.809Z,984.22
2023-01-01T06:12:26.626Z,984.02
2023-01-01T06:12:57.892Z,984.02
2023-01-01T06:13:30.692Z,984.02
2023-01-01T06:14:01.894Z,984.22
2023-01-01T06:14:34.684Z,984.22
2023-01-01T06:15:07.042Z,984.22
2023-01-01T06:15:38.752Z,984.22
2023-01-01T06:16:09.923Z,984.12
2023-01-01T06:16:42.888Z,984.12
2023-01-01T06:17:13.780Z,984.12
2023-01-01T06:17:46.683Z,984.12
2023-01-01T06:18:17.904Z,983.91
2023-01-01T06:18:50.766Z,983.91
2023-01-01T06:19:21.808Z,984.12
2023-01-01T06:19:54.613Z,984.12
2023-01-01T06:20:26.305Z,984.12
2023-01-01T06:20:58.750Z,984.12
2023-01-01T06:21:29.808Z,984.22
2023-01-01T06:22:02.660Z,984.32
2023-01-01T06:22:33.911Z,984.32
2023-01-01T06:23:06.748Z,984.12
2023-01-01T06:23:37.862Z,984.12
2023-01-01T06:24:10.680Z,984.22
2023-01-01T06:24:41.773Z,984.22
2023-01-01T06:25:14.901Z,984.22
2023-01-01T06:25:45.876Z,984.22
2023-01-01T06:26:18.549Z,984.32
2023-01-01T06:26:49.874Z,984.32
2023-01-01T06:27:22.677Z,984.32
2023-01-01T06:27:53.786Z,984.32
2023-01-01T06:28:26.596Z,984.22
2023-01-01T06:28:57.836Z,984.22
2023-01-01T06:29:30.726Z,984.12
2023-01-01T06:30:03.446Z,984.12
2023-01-01T06:30:34.865Z,984.12
2023-01-01T06:31:05.865Z,984.12
2023-01-01T06:31:41.025Z,984.12
2023-01-01T06:32:09.671Z,984.22
2023-01-01T06:32:42.587Z,984.22
2023-01-01T06:33:13.935Z,984.12
2023-01-01T06:33:46.621Z,984.12
2023-01-01T06:34:17.819Z,984.22
2023-01-01T06:34:50.829Z,984.22
2023-01-01T06:35:22.239Z,984.22
2023-01-01T06:35:54.607Z,984.22
2023-01-01T06:36:25.830Z,984.12
2023-01-01T06:37:03.078Z,984.12
2023-01-01T06:37:29.738Z,984.22
2023-01-01T06:38:02.775Z,984.12
2023-01-01T06:38:33.816Z,984.12
2023-01-01T06:39:06.760Z,984.22
2023-01-01T06:39:37.716Z,984.22
2023-01-01T06:40:10.751Z,984.22
2023-01-01T06:40:41.813Z,984.22